Baton Rouge, LA (70801)

3:14 AM CST on January 19, 2017 (GMT -0600)
Santa Maria | | Change Station
Active Advisory: Marine Fog Advisory

Elev 26 ft 30.45 °N, 91.19 °W | Updated 3 seconds ago

Overcast
Overcast
70.7 °F
Feels Like 70.7 °F
N
1.1
Wind Variable Wind from East

Today
High -- | Low -- °F
--% Chance of Precip.
Yesterday
High -- | Low -- °F
Precip. -- in
Pressure 29.92 in
Visibility 9.0 miles
Clouds Mostly Cloudy 1000 ft
Overcast 1400 ft
Dew Point 68 °F
Humidity 90%
Rainfall 0.02 in
Snow Depth Not available.
7:01 AM 5:30 PM
Waning Gibbous, 55% visible
METAR KBTR 190853Z AUTO 14008KT 9SM BKN010 OVC014 22/21 A2992 RMK AO2 RAB08E18 CIG 007V011 SLP131 P0000 60000 T02220211 56026
Pressure 29.92 in
Visibility 9.0 miles
Clouds Mostly Cloudy 1000 ft
Overcast 1400 ft
Dew Point 68 °F
Humidity 90%
Rainfall 0.02 in
Snow Depth Not available.
7:01 AM 5:30 PM
Waning Gibbous, 55% visible
METAR KBTR 190853Z AUTO 14008KT 9SM BKN010 OVC014 22/21 A2992 RMK AO2 RAB08E18 CIG 007V011 SLP131 P0000 60000 T02220211 56026

Get Your Daily Forecast Email!

Thanks for signing up!

Be on the lookout for a verification email in your inbox.

You'll start receiving the daily forecast at 8 AM.

×

10-Day Weather Forecast

Almanac

Astronomy

Jan. 19, 2017 Rise Set
Actual Time
Civil Twilight
Nautical Twilight
Astronomical Twilight
Moon
Length of Visible Light
Length of Day
Tomorrow will be .
, % of the Moon is Illuminated

Today's Extremes

State Highs State Lows

Community

WunderPhotos

Upload Photos

1,962,540 photos uploaded!

WunderBlog® & News

Nearby

Air Quality

  Air Quality AQ Index Pollutant
Not available.

Snow Depth

Station Depth Elevation

Earthquake Activity

City Distance Mag. Time & Date
Minimum magnitude displayed is 2.5.

Coastal Water Temperatures

Place Temperature

Stations

Nearby Weather Stations

Station Location Temp. Windchill Dew Point Humidity Wind Precip. Elev Updated Type
                   

Watches & Warnings

Marine Fog Advisory
Issued: 9:46 PM CST Jan. 18, 2017 – National Weather Service

... Dense fog advisory now in effect until 9 am CST Thursday...

* visibility... one mile or less

Precautionary/preparedness actions...

A dense fog advisory means visibilities will frequently be
reduced to less than one mile. Inexperienced mariners...
especially those operating smaller vessels should avoid
navigating in these conditions.



TD